Time;durP1;ratioP1;P1;durP2;ratioP2;P2;SDS_P1;SDS_P2;PMS_P1;PMS_P2;Temp;Humidity;BMP_temperature;BMP_pressure;BME280_temperature;BME280_humidity;BME280_pressure;Samples;Min_cycle;Max_cycle;Signal;HPM_P1;HPM_P2
2022/10/18 00:01:17;;;;;;;4.82;4.38;;;;;;;;;;5061950;28;20238;-52
2022/10/18 00:03:44;;;;;;;4.93;4.53;;;;;;;;;;5078143;28;20245;-53
2022/10/18 00:06:10;;;;;;;4.80;4.35;;;;;;;;;;5092831;27;20237;-52
2022/10/18 00:08:37;;;;;;;7.68;5.00;;;;;;;;;;5068190;28;20798;-52
2022/10/18 00:11:05;;;;;;;5.55;5.05;;;;;;;;;;5070952;28;20261;-52
2022/10/18 00:13:32;;;;;;;5.57;5.03;;;;;;;;;;5077058;27;20249;-52
2022/10/18 00:15:59;;;;;;;5.50;4.65;;;;;;;;;;5081463;27;20229;-52
2022/10/18 00:18:25;;;;;;;6.00;4.80;;;;;;;;;;5071148;28;20233;-52
2022/10/18 00:20:59;;;;;;;5.28;4.32;;;;;;;;;;5081103;28;20234;-53
2022/10/18 00:23:26;;;;;;;5.00;4.50;;;;;;;;;;5076506;28;20238;-52
2022/10/18 00:25:58;;;;;;;7.95;5.13;;;;;;;;;;5078286;28;20231;-52
2022/10/18 00:28:26;;;;;;;5.47;4.97;;;;;;;;;;5068503;28;20235;-52
2022/10/18 00:30:52;;;;;;;7.03;4.93;;;;;;;;;;5078915;28;20715;-52
2022/10/18 00:33:18;;;;;;;6.72;5.13;;;;;;;;;;5064774;28;20254;-52
2022/10/18 00:35:44;;;;;;;6.07;5.43;;;;;;;;;;5083471;27;20230;-52
2022/10/18 00:38:11;;;;;;;6.40;5.80;;;;;;;;;;5087186;27;20239;-52
2022/10/18 00:40:37;;;;;;;6.05;5.38;;;;;;;;;;5084917;28;20250;-52
2022/10/18 00:43:03;;;;;;;5.35;4.68;;;;;;;;;;5077096;28;20238;-52
2022/10/18 00:45:31;;;;;;;7.22;4.82;;;;;;;;;;5081190;27;20238;-53
2022/10/18 00:47:59;;;;;;;6.88;5.55;;;;;;;;;;5067672;28;20228;-52
2022/10/18 00:50:26;;;;;;;5.43;5.00;;;;;;;;;;5070224;28;20652;-52
2022/10/18 00:52:54;;;;;;;6.30;5.63;;;;;;;;;;5059328;28;20228;-52
2022/10/18 00:55:21;;;;;;;6.00;5.50;;;;;;;;;;5060564;28;20230;-52
2022/10/18 00:57:48;;;;;;;6.00;5.50;;;;;;;;;;5064706;28;20289;-52
2022/10/18 01:00:15;;;;;;;6.05;5.30;;;;;;;;;;5060398;28;20721;-52
2022/10/18 01:02:45;;;;;;;6.32;5.72;;;;;;;;;;5062581;28;20237;-52
2022/10/18 01:05:13;;;;;;;6.72;6.03;;;;;;;;;;5080215;28;20247;-52
2022/10/18 01:08:00;;;;;;;6.18;5.68;;;;;;;;;;5077376;28;20230;-52
2022/10/18 01:10:29;;;;;;;5.88;5.25;;;;;;;;;;5066837;27;20771;-52
2022/10/18 01:13:02;;;;;;;6.55;5.80;;;;;;;;;;5085797;27;20234;-51
2022/10/18 01:15:30;;;;;;;7.18;6.53;;;;;;;;;;5077024;27;20817;-52
2022/10/18 01:18:04;;;;;;;8.45;6.38;;;;;;;;;;5090198;27;20591;-52
2022/10/18 01:20:52;;;;;;;7.90;6.82;;;;;;;;;;5076982;27;20231;-52
2022/10/18 01:23:22;;;;;;;6.97;6.28;;;;;;;;;;5068820;28;20242;-52
2022/10/18 01:25:54;;;;;;;6.85;5.75;;;;;;;;;;5078687;28;20767;-52
2022/10/18 01:28:29;;;;;;;7.72;6.43;;;;;;;;;;5078570;27;20226;-52
2022/10/18 01:30:58;;;;;;;8.60;6.93;;;;;;;;;;5083738;27;20221;-53
2022/10/18 01:33:33;;;;;;;7.75;6.88;;;;;;;;;;5080088;27;20254;-52
2022/10/18 01:36:03;;;;;;;7.30;6.57;;;;;;;;;;5065732;28;20241;-52
2022/10/18 01:38:31;;;;;;;7.20;6.50;;;;;;;;;;5077920;27;20239;-52
2022/10/18 01:40:57;;;;;;;6.50;5.90;;;;;;;;;;5079160;27;20326;-52
2022/10/18 01:43:24;;;;;;;7.70;6.93;;;;;;;;;;5084352;27;20235;-52
2022/10/18 01:45:52;;;;;;;7.32;6.63;;;;;;;;;;5078152;27;20979;-51
2022/10/18 01:48:20;;;;;;;7.60;7.00;;;;;;;;;;5066994;28;20238;-57
2022/10/18 01:50:46;;;;;;;9.52;7.55;;;;;;;;;;5059521;28;20259;-52
2022/10/18 01:53:23;;;;;;;7.95;6.85;;;;;;;;;;5061564;28;20238;-51
2022/10/18 01:55:54;;;;;;;12.38;6.82;;;;;;;;;;5056813;28;20641;-51
2022/10/18 01:58:23;;;;;;;7.78;7.00;;;;;;;;;;5060794;28;20235;-52
2022/10/18 02:00:55;;;;;;;7.97;7.18;;;;;;;;;;5055596;28;20229;-51
2022/10/18 02:03:24;;;;;;;8.35;7.10;;;;;;;;;;5062793;28;20238;-52
2022/10/18 02:05:54;;;;;;;7.43;6.72;;;;;;;;;;5060031;28;20226;-51
2022/10/18 02:08:25;;;;;;;8.95;8.07;;;;;;;;;;5061534;28;20246;-52
2022/10/18 02:10:54;;;;;;;8.73;7.93;;;;;;;;;;5061298;28;20238;-52
2022/10/18 02:13:22;;;;;;;9.98;8.32;;;;;;;;;;5060962;28;20330;-52
2022/10/18 02:15:50;;;;;;;8.38;7.57;;;;;;;;;;5061096;28;20223;-53
2022/10/18 02:18:18;;;;;;;8.23;7.53;;;;;;;;;;5060757;28;20721;-52
2022/10/18 02:20:47;;;;;;;8.73;8.02;;;;;;;;;;5062787;28;20235;-52
2022/10/18 02:23:15;;;;;;;6.88;6.38;;;;;;;;;;5061002;28;20231;-53
2022/10/18 02:25:41;;;;;;;8.20;7.43;;;;;;;;;;5070129;28;20322;-57
2022/10/18 02:28:08;;;;;;;8.82;7.47;;;;;;;;;;5083243;27;20286;-51
2022/10/18 02:30:37;;;;;;;8.15;7.45;;;;;;;;;;5072973;27;20847;-52
2022/10/18 02:33:05;;;;;;;7.90;7.03;;;;;;;;;;5075273;27;20223;-51
2022/10/18 02:35:34;;;;;;;9.23;6.97;;;;;;;;;;5076953;28;20250;-52
2022/10/18 02:38:03;;;;;;;9.07;7.40;;;;;;;;;;5083663;27;20309;-52
2022/10/18 02:40:30;;;;;;;7.22;6.68;;;;;;;;;;5085661;27;20238;-51
2022/10/18 02:42:57;;;;;;;8.43;7.63;;;;;;;;;;5071292;28;20222;-52
2022/10/18 02:45:24;;;;;;;6.90;6.15;;;;;;;;;;5091015;27;20245;-52
2022/10/18 02:47:51;;;;;;;7.63;6.93;;;;;;;;;;5074863;27;20226;-52
2022/10/18 02:50:17;;;;;;;7.47;6.55;;;;;;;;;;5073365;27;20243;-52
2022/10/18 02:52:44;;;;;;;8.52;7.40;;;;;;;;;;5085373;27;20223;-53
2022/10/18 02:55:12;;;;;;;6.72;6.05;;;;;;;;;;5067463;28;20239;-52
2022/10/18 02:57:38;;;;;;;7.30;6.63;;;;;;;;;;5064953;28;20235;-52
2022/10/18 03:00:05;;;;;;;7.57;6.85;;;;;;;;;;5066774;28;21056;-51
2022/10/18 03:02:32;;;;;;;10.35;6.50;;;;;;;;;;5062371;28;20235;-52
2022/10/18 03:04:58;;;;;;;7.18;6.47;;;;;;;;;;5065360;28;20227;-52
2022/10/18 03:07:25;;;;;;;7.35;5.88;;;;;;;;;;5066386;28;20742;-52
2022/10/18 03:09:51;;;;;;;6.47;5.90;;;;;;;;;;5063501;28;20800;-53
2022/10/18 03:12:19;;;;;;;7.10;6.40;;;;;;;;;;5071864;28;20292;-52
2022/10/18 03:14:49;;;;;;;9.02;7.43;;;;;;;;;;5065367;28;20923;-53
2022/10/18 03:17:15;;;;;;;7.28;5.95;;;;;;;;;;5063772;28;20429;-51
2022/10/18 03:19:42;;;;;;;6.93;6.28;;;;;;;;;;5079978;28;20933;-51
2022/10/18 03:22:08;;;;;;;8.65;7.45;;;;;;;;;;5082675;27;20662;-51
2022/10/18 03:24:34;;;;;;;7.70;7.10;;;;;;;;;;5093953;27;20735;-51
2022/10/18 03:27:01;;;;;;;7.25;6.55;;;;;;;;;;5086181;27;20249;-52
2022/10/18 03:29:29;;;;;;;7.15;6.53;;;;;;;;;;5084730;27;20737;-52
2022/10/18 03:31:56;;;;;;;7.78;6.63;;;;;;;;;;5084949;27;20663;-52
2022/10/18 03:34:22;;;;;;;7.35;6.68;;;;;;;;;;5081293;27;20251;-52
2022/10/18 03:36:48;;;;;;;6.95;6.35;;;;;;;;;;5088236;27;20218;-53
2022/10/18 03:39:15;;;;;;;7.22;6.53;;;;;;;;;;5091163;27;20256;-52
2022/10/18 03:41:41;;;;;;;6.82;6.22;;;;;;;;;;5083242;27;20241;-51
2022/10/18 03:44:08;;;;;;;7.18;6.57;;;;;;;;;;5079359;27;20291;-51
2022/10/18 03:46:36;;;;;;;7.40;6.80;;;;;;;;;;5097863;27;20234;-52
2022/10/18 03:49:03;;;;;;;8.27;7.10;;;;;;;;;;5085926;27;20230;-51
2022/10/18 03:51:29;;;;;;;8.15;6.85;;;;;;;;;;5069594;28;20736;-52
2022/10/18 03:53:56;;;;;;;7.15;6.47;;;;;;;;;;5064600;27;20229;-52
2022/10/18 03:56:22;;;;;;;7.68;6.97;;;;;;;;;;5092372;27;20233;-53
2022/10/18 03:58:49;;;;;;;7.25;6.47;;;;;;;;;;5084719;27;20222;-52
2022/10/18 04:01:15;;;;;;;7.18;6.35;;;;;;;;;;5081992;27;20332;-52
2022/10/18 04:03:43;;;;;;;7.82;7.10;;;;;;;;;;5091702;27;20263;-51
2022/10/18 04:06:10;;;;;;;7.90;6.35;;;;;;;;;;5083775;27;20886;-52
2022/10/18 04:08:37;;;;;;;7.78;6.55;;;;;;;;;;5092519;27;20265;-51
2022/10/18 04:11:07;;;;;;;8.10;7.32;;;;;;;;;;5083561;27;20639;-53
2022/10/18 04:13:33;;;;;;;8.00;7.20;;;;;;;;;;5064053;28;20277;-52
2022/10/18 04:15:59;;;;;;;7.40;6.72;;;;;;;;;;5088814;28;20276;-53
2022/10/18 04:18:26;;;;;;;7.82;6.68;;;;;;;;;;5082904;28;20322;-53
2022/10/18 04:20:54;;;;;;;5.68;5.20;;;;;;;;;;5087342;27;20230;-52
2022/10/18 04:23:20;;;;;;;7.53;5.53;;;;;;;;;;5082514;27;20222;-53
2022/10/18 04:25:47;;;;;;;7.15;6.45;;;;;;;;;;5072412;28;20228;-52
2022/10/18 04:28:13;;;;;;;6.72;6.07;;;;;;;;;;5078623;28;20321;-52
2022/10/18 04:30:40;;;;;;;7.88;7.07;;;;;;;;;;5087585;27;20284;-51
2022/10/18 04:33:06;;;;;;;7.28;6.57;;;;;;;;;;5088300;27;26184;-52
2022/10/18 04:35:33;;;;;;;7.50;6.90;;;;;;;;;;5087808;27;20238;-53
2022/10/18 04:38:01;;;;;;;10.18;8.07;;;;;;;;;;5078322;27;20761;-51
2022/10/18 04:40:27;;;;;;;9.20;7.07;;;;;;;;;;5086422;27;20266;-52
2022/10/18 04:42:54;;;;;;;8.02;7.22;;;;;;;;;;5092998;27;20229;-51
2022/10/18 04:45:20;;;;;;;8.25;7.55;;;;;;;;;;5079144;27;20243;-52
2022/10/18 04:47:47;;;;;;;8.60;7.80;;;;;;;;;;5080026;27;20258;-52
2022/10/18 04:50:13;;;;;;;8.05;7.35;;;;;;;;;;5073584;27;20927;-51
2022/10/18 04:52:39;;;;;;;8.13;7.47;;;;;;;;;;5064668;28;20223;-52
2022/10/18 04:55:08;;;;;;;8.18;7.35;;;;;;;;;;5082678;27;20730;-52
2022/10/18 04:57:34;;;;;;;8.13;7.32;;;;;;;;;;5073722;27;20869;-52
2022/10/18 05:00:01;;;;;;;7.63;6.85;;;;;;;;;;5083184;27;20351;-52
2022/10/18 05:02:27;;;;;;;7.47;6.88;;;;;;;;;;5070612;27;20231;-51
2022/10/18 05:04:54;;;;;;;7.38;6.70;;;;;;;;;;5073149;28;20250;-51
2022/10/18 05:07:20;;;;;;;7.18;6.55;;;;;;;;;;5078651;27;20370;-52
2022/10/18 05:09:47;;;;;;;7.75;7.13;;;;;;;;;;5080240;28;20222;-52
2022/10/18 05:12:14;;;;;;;7.65;6.95;;;;;;;;;;5080050;28;20223;-53
2022/10/18 05:14:41;;;;;;;8.15;7.40;;;;;;;;;;5087705;28;20226;-51
2022/10/18 05:17:07;;;;;;;11.55;7.03;;;;;;;;;;5078359;27;20242;-53
2022/10/18 05:19:34;;;;;;;7.20;6.55;;;;;;;;;;5083388;27;20328;-52
2022/10/18 05:22:00;;;;;;;8.98;8.13;;;;;;;;;;5083463;28;20283;-52
2022/10/18 05:24:27;;;;;;;8.38;7.57;;;;;;;;;;5069570;28;20234;-51
2022/10/18 05:26:53;;;;;;;7.32;6.68;;;;;;;;;;5079270;27;20309;-52
2022/10/18 05:29:21;;;;;;;8.00;7.20;;;;;;;;;;5092018;27;20296;-52
2022/10/18 05:31:48;;;;;;;7.75;7.03;;;;;;;;;;5086598;27;20229;-51
2022/10/18 05:34:14;;;;;;;7.88;7.10;;;;;;;;;;5078069;27;20545;-51
2022/10/18 05:36:41;;;;;;;10.75;8.02;;;;;;;;;;5085267;27;20231;-52
2022/10/18 05:39:07;;;;;;;10.52;8.57;;;;;;;;;;5085660;27;20633;-52
2022/10/18 05:41:33;;;;;;;7.63;6.93;;;;;;;;;;5081523;27;20280;-52
2022/10/18 05:44:02;;;;;;;8.80;7.32;;;;;;;;;;5088672;27;20259;-51
2022/10/18 05:46:30;;;;;;;8.32;7.53;;;;;;;;;;5072810;27;20231;-52
2022/10/18 05:48:57;;;;;;;8.60;7.22;;;;;;;;;;5070708;28;20285;-51
2022/10/18 05:51:24;;;;;;;7.57;6.95;;;;;;;;;;5066551;28;20236;-52
2022/10/18 05:53:51;;;;;;;8.52;7.25;;;;;;;;;;5061812;28;20227;-53
2022/10/18 05:56:18;;;;;;;9.00;7.70;;;;;;;;;;5061591;28;20223;-52
2022/10/18 05:58:49;;;;;;;7.70;7.10;;;;;;;;;;5091450;28;20214;-52
2022/10/18 06:01:16;;;;;;;8.88;7.22;;;;;;;;;;5084158;27;20277;-51
2022/10/18 06:03:44;;;;;;;8.77;7.82;;;;;;;;;;5086825;27;20238;-52
2022/10/18 06:06:11;;;;;;;7.60;6.85;;;;;;;;;;5077583;28;20234;-51
2022/10/18 06:08:38;;;;;;;8.13;7.35;;;;;;;;;;5074823;28;20511;-52
2022/10/18 06:11:08;;;;;;;8.57;7.80;;;;;;;;;;5077534;28;20233;-52
2022/10/18 06:13:39;;;;;;;8.63;6.97;;;;;;;;;;5081757;28;20230;-52
2022/10/18 06:16:06;;;;;;;9.18;8.30;;;;;;;;;;5082991;28;20222;-52
2022/10/18 06:18:32;;;;;;;7.80;7.10;;;;;;;;;;5074590;28;20231;-52
2022/10/18 06:21:00;;;;;;;9.07;7.88;;;;;;;;;;5075350;28;20310;-52
2022/10/18 06:23:26;;;;;;;7.93;7.13;;;;;;;;;;5072650;28;20815;-52
2022/10/18 06:25:53;;;;;;;7.75;6.95;;;;;;;;;;5065815;28;20224;-52
2022/10/18 06:28:19;;;;;;;7.60;6.80;;;;;;;;;;5079606;27;20227;-52
2022/10/18 06:30:46;;;;;;;7.53;6.82;;;;;;;;;;5070798;28;20253;-52
2022/10/18 06:33:12;;;;;;;7.57;6.80;;;;;;;;;;5074655;28;20234;-52
2022/10/18 06:35:39;;;;;;;7.70;6.40;;;;;;;;;;5082564;28;20257;-52
2022/10/18 06:38:07;;;;;;;6.18;5.68;;;;;;;;;;5078321;28;20304;-53
2022/10/18 06:40:36;;;;;;;6.20;5.32;;;;;;;;;;5073339;28;20952;-52
2022/10/18 06:43:05;;;;;;;5.45;4.85;;;;;;;;;;5079442;27;20258;-52
2022/10/18 06:45:31;;;;;;;6.55;5.57;;;;;;;;;;5085556;28;20242;-52
2022/10/18 06:47:58;;;;;;;9.02;7.28;;;;;;;;;;5072404;28;20817;-52
2022/10/18 06:50:25;;;;;;;7.32;6.32;;;;;;;;;;5078547;28;20247;-52
2022/10/18 06:52:51;;;;;;;6.65;5.90;;;;;;;;;;5084189;28;20226;-58
2022/10/18 06:55:19;;;;;;;7.20;6.35;;;;;;;;;;5068274;28;20294;-53
2022/10/18 06:57:46;;;;;;;6.90;5.53;;;;;;;;;;5096279;28;20226;-53
2022/10/18 07:00:13;;;;;;;7.55;5.50;;;;;;;;;;5083097;28;20255;-52
2022/10/18 07:02:40;;;;;;;5.15;4.72;;;;;;;;;;5087106;27;20325;-53
2022/10/18 07:05:06;;;;;;;5.30;4.80;;;;;;;;;;5081006;27;20239;-52
2022/10/18 07:07:33;;;;;;;10.40;6.00;;;;;;;;;;5069704;28;20231;-52
2022/10/18 07:09:59;;;;;;;7.35;5.65;;;;;;;;;;5075965;28;20657;-52
2022/10/18 07:12:27;;;;;;;6.63;5.97;;;;;;;;;;5066020;28;20235;-53
2022/10/18 07:14:53;;;;;;;8.73;6.65;;;;;;;;;;5064702;28;20740;-52
2022/10/18 07:17:20;;;;;;;7.90;7.07;;;;;;;;;;5060974;28;20262;-53
2022/10/18 07:19:47;;;;;;;9.40;8.50;;;;;;;;;;5062891;28;20231;-53
2022/10/18 07:22:13;;;;;;;9.43;8.27;;;;;;;;;;5066464;28;20234;-51
2022/10/18 07:24:40;;;;;;;12.80;8.98;;;;;;;;;;5069949;28;20253;-51
2022/10/18 07:27:06;;;;;;;10.68;9.15;;;;;;;;;;5067998;28;20238;-52
2022/10/18 07:29:36;;;;;;;15.70;12.85;;;;;;;;;;5069568;28;20239;-54
2022/10/18 07:32:03;;;;;;;14.85;10.10;;;;;;;;;;5069318;28;20256;-52
2022/10/18 07:34:30;;;;;;;10.80;7.65;;;;;;;;;;5064378;28;20274;-53
2022/10/18 07:36:57;;;;;;;11.50;9.15;;;;;;;;;;5066536;28;20280;-52
2022/10/18 07:39:23;;;;;;;10.27;7.60;;;;;;;;;;5063035;28;20300;-52
2022/10/18 07:41:49;;;;;;;9.65;7.85;;;;;;;;;;5066532;28;20241;-53
2022/10/18 07:44:16;;;;;;;9.75;7.35;;;;;;;;;;5077477;28;20267;-52
2022/10/18 07:46:44;;;;;;;7.10;6.32;;;;;;;;;;5067065;28;20231;-52
2022/10/18 07:49:10;;;;;;;7.68;6.75;;;;;;;;;;5066391;28;20237;-52
2022/10/18 07:51:37;;;;;;;7.80;6.65;;;;;;;;;;5067940;28;20231;-52
2022/10/18 07:54:04;;;;;;;10.30;6.70;;;;;;;;;;5064141;28;20648;-53
2022/10/18 07:56:30;;;;;;;8.10;6.43;;;;;;;;;;5065010;28;20239;-53
2022/10/18 07:58:57;;;;;;;10.52;6.68;;;;;;;;;;5061817;28;20231;-52
2022/10/18 08:01:24;;;;;;;7.80;7.10;;;;;;;;;;5058317;28;20306;-53
2022/10/18 08:03:53;;;;;;;8.32;6.68;;;;;;;;;;5057666;28;20308;-54
2022/10/18 08:06:20;;;;;;;7.00;6.30;;;;;;;;;;5061309;28;20273;-53
2022/10/18 08:08:47;;;;;;;10.30;7.53;;;;;;;;;;5062911;28;20302;-53
2022/10/18 08:11:14;;;;;;;9.20;8.23;;;;;;;;;;5068483;28;20230;-57
2022/10/18 08:13:41;;;;;;;9.50;7.80;;;;;;;;;;5081031;28;20277;-55
2022/10/18 08:16:09;;;;;;;8.90;8.00;;;;;;;;;;5070998;28;20227;-55
2022/10/18 08:18:35;;;;;;;10.18;6.85;;;;;;;;;;5049456;28;20816;-58
2022/10/18 08:21:03;;;;;;;10.73;8.20;;;;;;;;;;5074745;28;20226;-55
2022/10/18 08:23:30;;;;;;;9.48;7.35;;;;;;;;;;5087639;27;20235;-58
2022/10/18 08:25:56;;;;;;;7.63;6.82;;;;;;;;;;5082072;28;20580;-58
2022/10/18 08:28:22;;;;;;;7.85;7.05;;;;;;;;;;5091179;27;20237;-60
2022/10/18 08:30:49;;;;;;;9.48;6.38;;;;;;;;;;5063526;28;20231;-60
2022/10/18 08:33:15;;;;;;;7.15;6.45;;;;;;;;;;5071397;28;20237;-62
2022/10/18 08:35:41;;;;;;;9.43;7.05;;;;;;;;;;5070918;28;20654;-61
2022/10/18 08:38:10;;;;;;;8.27;7.40;;;;;;;;;;5096378;27;20229;-60
2022/10/18 08:40:42;;;;;;;8.07;7.28;;;;;;;;;;5079848;27;20237;-62
2022/10/18 08:43:11;;;;;;;8.15;6.30;;;;;;;;;;5072662;28;20239;-61
2022/10/18 08:45:40;;;;;;;10.25;7.45;;;;;;;;;;5068278;28;20242;-61
2022/10/18 08:48:07;;;;;;;8.18;7.38;;;;;;;;;;5072052;28;20234;-62
2022/10/18 08:50:36;;;;;;;9.23;7.60;;;;;;;;;;5070016;28;20238;-62
2022/10/18 08:53:06;;;;;;;10.43;7.25;;;;;;;;;;5070426;28;20226;-70
2022/10/18 08:55:36;;;;;;;9.15;7.45;;;;;;;;;;5075938;28;20230;-57
2022/10/18 08:58:04;;;;;;;10.30;7.95;;;;;;;;;;5066648;28;20231;-56
2022/10/18 09:00:33;;;;;;;9.23;7.50;;;;;;;;;;5061121;28;20227;-55
2022/10/18 09:03:11;;;;;;;10.55;7.72;;;;;;;;;;5062394;28;20314;-53
2022/10/18 09:05:43;;;;;;;8.13;7.40;;;;;;;;;;5059324;28;20353;-51
2022/10/18 09:08:19;;;;;;;13.65;7.97;;;;;;;;;;5062501;28;20231;-51
2022/10/18 09:10:55;;;;;;;7.70;6.80;;;;;;;;;;5060470;28;20234;-51
2022/10/18 09:13:32;;;;;;;9.98;6.72;;;;;;;;;;5061888;28;21648;-51
2022/10/18 09:16:00;;;;;;;9.65;7.72;;;;;;;;;;5059363;28;20230;-51
2022/10/18 09:18:32;;;;;;;9.82;7.35;;;;;;;;;;5064010;28;20231;-53
2022/10/18 09:20:59;;;;;;;7.78;6.82;;;;;;;;;;5059163;28;20242;-51
2022/10/18 09:23:31;;;;;;;7.40;6.70;;;;;;;;;;5065505;28;20246;-50
2022/10/18 09:26:03;;;;;;;8.65;7.85;;;;;;;;;;5064460;28;20238;-51
2022/10/18 09:28:35;;;;;;;8.43;7.68;;;;;;;;;;5068830;28;20234;-51
2022/10/18 09:31:05;;;;;;;10.07;7.85;;;;;;;;;;5063767;28;20227;-51
2022/10/18 09:33:42;;;;;;;8.48;7.57;;;;;;;;;;5060830;28;20242;-51
2022/10/18 09:36:10;;;;;;;8.45;7.60;;;;;;;;;;5064149;28;20227;-51
2022/10/18 09:38:40;;;;;;;7.40;6.70;;;;;;;;;;5063948;28;20223;-51
2022/10/18 09:41:12;;;;;;;8.75;7.45;;;;;;;;;;5062760;28;20227;-51
2022/10/18 09:43:42;;;;;;;10.65;9.55;;;;;;;;;;5051925;28;20238;-51
2022/10/18 09:46:08;;;;;;;10.23;8.43;;;;;;;;;;5058546;28;20670;-51
2022/10/18 09:48:38;;;;;;;10.02;8.95;;;;;;;;;;5071742;28;20234;-50
2022/10/18 09:51:10;;;;;;;10.45;9.30;;;;;;;;;;5057877;28;20250;-51
2022/10/18 09:53:40;;;;;;;9.57;8.07;;;;;;;;;;5064007;28;20258;-51
2022/10/18 09:56:09;;;;;;;9.43;8.07;;;;;;;;;;5081520;28;20729;-51
2022/10/18 09:58:41;;;;;;;9.35;8.35;;;;;;;;;;5090165;27;20238;-51
2022/10/18 10:01:08;;;;;;;8.98;8.10;;;;;;;;;;5073201;28;20268;-50
2022/10/18 10:03:34;;;;;;;9.15;8.23;;;;;;;;;;5076947;28;20265;-50
2022/10/18 10:06:14;;;;;;;8.95;8.07;;;;;;;;;;5073904;28;20223;-50
2022/10/18 10:08:41;;;;;;;9.82;8.80;;;;;;;;;;5068809;28;20245;-52
2022/10/18 10:11:25;;;;;;;10.57;8.95;;;;;;;;;;5080979;27;20227;-52
2022/10/18 10:13:56;;;;;;;9.88;8.77;;;;;;;;;;5065489;28;20226;-52
2022/10/18 10:16:23;;;;;;;11.25;8.73;;;;;;;;;;5079756;27;20242;-51
2022/10/18 10:18:53;;;;;;;11.20;10.13;;;;;;;;;;5085513;27;20227;-51
2022/10/18 10:21:20;;;;;;;9.57;8.68;;;;;;;;;;5065346;28;20247;-51
2022/10/18 10:23:51;;;;;;;10.85;9.38;;;;;;;;;;5067130;28;20310;-51
2022/10/18 10:26:21;;;;;;;12.75;9.23;;;;;;;;;;5089196;28;20644;-51
2022/10/18 10:28:48;;;;;;;9.18;8.38;;;;;;;;;;5077591;28;20290;-50
2022/10/18 10:31:25;;;;;;;10.20;9.18;;;;;;;;;;5076474;27;20250;-51
2022/10/18 10:33:58;;;;;;;10.73;9.48;;;;;;;;;;5077923;27;20230;-52
2022/10/18 10:36:24;;;;;;;10.75;8.63;;;;;;;;;;5078539;28;20239;-51
2022/10/18 10:39:02;;;;;;;10.65;9.55;;;;;;;;;;5082250;28;20231;-50
2022/10/18 10:41:28;;;;;;;10.75;9.07;;;;;;;;;;5079833;28;20234;-52
2022/10/18 10:43:55;;;;;;;12.55;9.98;;;;;;;;;;5074020;28;20712;-51
2022/10/18 10:46:25;;;;;;;14.45;11.50;;;;;;;;;;5088644;27;22064;-51
2022/10/18 10:48:52;;;;;;;10.15;8.95;;;;;;;;;;5073546;28;20708;-51
2022/10/18 10:51:27;;;;;;;10.30;9.23;;;;;;;;;;5079535;27;20231;-50
2022/10/18 10:53:58;;;;;;;11.80;10.40;;;;;;;;;;5079835;28;20241;-52
2022/10/18 10:56:26;;;;;;;10.30;8.93;;;;;;;;;;5077787;28;20231;-52
2022/10/18 10:58:53;;;;;;;9.77;8.88;;;;;;;;;;5079168;27;20315;-50
2022/10/18 11:01:22;;;;;;;11.93;10.10;;;;;;;;;;5090251;27;20230;-52
2022/10/18 11:03:51;;;;;;;13.82;10.77;;;;;;;;;;5071086;28;20234;-50
2022/10/18 11:06:29;;;;;;;10.93;9.55;;;;;;;;;;5080999;27;20226;-50
2022/10/18 11:08:58;;;;;;;10.65;9.55;;;;;;;;;;5078181;27;20296;-52
2022/10/18 11:11:29;;;;;;;11.68;10.48;;;;;;;;;;5089284;28;20234;-50
2022/10/18 11:13:57;;;;;;;10.85;9.38;;;;;;;;;;5072139;28;20257;-50
2022/10/18 11:16:26;;;;;;;10.73;8.38;;;;;;;;;;5073548;28;20241;-52
2022/10/18 11:18:56;;;;;;;9.52;8.57;;;;;;;;;;5063668;28;20237;-51
2022/10/18 11:21:25;;;;;;;10.07;9.07;;;;;;;;;;5065198;28;20718;-51
2022/10/18 11:23:51;;;;;;;10.95;8.70;;;;;;;;;;5065547;28;20227;-52
2022/10/18 11:26:30;;;;;;;9.82;8.82;;;;;;;;;;5066086;28;20704;-50
2022/10/18 11:29:02;;;;;;;9.73;8.82;;;;;;;;;;5067133;28;20219;-51
2022/10/18 11:31:31;;;;;;;9.02;8.15;;;;;;;;;;5064661;28;20636;-51
2022/10/18 11:34:07;;;;;;;10.50;9.43;;;;;;;;;;5065863;28;20254;-51
2022/10/18 11:36:36;;;;;;;11.00;9.95;;;;;;;;;;5073523;28;20240;-50
2022/10/18 11:39:07;;;;;;;9.48;8.45;;;;;;;;;;5065374;28;20222;-50
2022/10/18 11:41:38;;;;;;;9.13;8.23;;;;;;;;;;5061639;28;20231;-51
2022/10/18 11:44:11;;;;;;;9.60;8.70;;;;;;;;;;5063813;28;20234;-52
2022/10/18 11:46:42;;;;;;;10.13;9.13;;;;;;;;;;5060605;27;20732;-51
2022/10/18 11:49:19;;;;;;;12.10;10.45;;;;;;;;;;5067966;28;20233;-52
2022/10/18 11:51:52;;;;;;;11.48;10.38;;;;;;;;;;5061756;28;20226;-50
2022/10/18 11:54:29;;;;;;;10.88;9.52;;;;;;;;;;5077424;27;20234;-51
2022/10/18 11:57:02;;;;;;;10.88;9.75;;;;;;;;;;5065810;28;20721;-50
2022/10/18 11:59:32;;;;;;;10.45;9.25;;;;;;;;;;5071629;28;20230;-51
2022/10/18 12:02:06;;;;;;;10.65;9.65;;;;;;;;;;5069031;28;20235;-50
2022/10/18 12:04:36;;;;;;;10.80;8.82;;;;;;;;;;5051918;28;20248;-51
2022/10/18 12:07:05;;;;;;;10.48;8.35;;;;;;;;;;5073626;28;20234;-52
2022/10/18 12:09:34;;;;;;;9.68;8.77;;;;;;;;;;5065008;28;20235;-52
2022/10/18 12:12:02;;;;;;;9.95;8.32;;;;;;;;;;5060915;28;20654;-52
2022/10/18 12:14:30;;;;;;;9.95;8.10;;;;;;;;;;5061792;28;20745;-52
2022/10/18 12:16:59;;;;;;;8.63;7.82;;;;;;;;;;5068198;28;20234;-52
2022/10/18 12:19:27;;;;;;;10.00;8.27;;;;;;;;;;5065069;28;20269;-54
2022/10/18 12:21:56;;;;;;;8.07;7.28;;;;;;;;;;5058983;28;20235;-52
2022/10/18 12:24:24;;;;;;;9.93;8.82;;;;;;;;;;5060251;28;20262;-52
2022/10/18 12:26:51;;;;;;;9.38;8.50;;;;;;;;;;5067786;28;20231;-52
2022/10/18 12:29:20;;;;;;;9.30;8.15;;;;;;;;;;5067675;28;20238;-52
2022/10/18 12:31:49;;;;;;;9.00;8.20;;;;;;;;;;5069276;28;20230;-53
2022/10/18 12:34:30;;;;;;;9.93;8.43;;;;;;;;;;5053231;28;20716;-52
2022/10/18 12:37:08;;;;;;;10.07;8.93;;;;;;;;;;5070909;28;20615;-54
2022/10/18 12:39:37;;;;;;;11.45;9.18;;;;;;;;;;5060771;28;20242;-53
2022/10/18 12:42:03;;;;;;;11.43;9.73;;;;;;;;;;5063519;28;20227;-54
2022/10/18 12:44:31;;;;;;;13.13;9.90;;;;;;;;;;5069450;28;20845;-53
2022/10/18 12:46:58;;;;;;;10.88;9.75;;;;;;;;;;5075729;28;20225;-55
2022/10/18 12:49:27;;;;;;;10.60;9.50;;;;;;;;;;5063632;28;20235;-54
2022/10/18 12:51:54;;;;;;;12.93;10.43;;;;;;;;;;5060916;28;20238;-55
2022/10/18 12:54:25;;;;;;;12.13;10.90;;;;;;;;;;5064725;28;20227;-55
2022/10/18 12:56:51;;;;;;;11.85;10.65;;;;;;;;;;5066618;27;20221;-56
2022/10/18 12:59:40;;;;;;;11.20;10.15;;;;;;;;;;5072416;28;20227;-56
2022/10/18 13:02:19;;;;;;;12.80;11.10;;;;;;;;;;5077555;27;20234;-57
2022/10/18 13:04:46;;;;;;;12.07;10.93;;;;;;;;;;5076696;28;20642;-58
2022/10/18 13:07:17;;;;;;;11.05;9.95;;;;;;;;;;5089402;27;20273;-59
2022/10/18 13:10:06;;;;;;;10.02;9.10;;;;;;;;;;5063004;28;20281;-59
2022/10/18 13:12:54;;;;;;;11.43;10.30;;;;;;;;;;5062887;28;20235;-59
2022/10/18 13:15:36;;;;;;;11.25;10.20;;;;;;;;;;5064238;28;20231;-59
2022/10/18 13:18:05;;;;;;;14.20;10.57;;;;;;;;;;5064009;28;20219;-59
2022/10/18 13:20:37;;;;;;;10.27;9.27;;;;;;;;;;5081419;28;20243;-61
2022/10/18 13:23:09;;;;;;;12.75;9.88;;;;;;;;;;5094376;27;20708;-62
2022/10/18 13:25:45;;;;;;;11.85;10.60;;;;;;;;;;5086373;27;20238;-61
2022/10/18 13:28:18;;;;;;;10.60;9.48;;;;;;;;;;5079007;28;20226;-61
2022/10/18 13:30:50;;;;;;;9.73;8.82;;;;;;;;;;5065063;28;20230;-61
2022/10/18 13:33:28;;;;;;;10.95;9.82;;;;;;;;;;5060026;28;20242;-61
2022/10/18 13:35:56;;;;;;;12.10;10.90;;;;;;;;;;5069549;28;20227;-62
2022/10/18 13:38:30;;;;;;;11.65;10.45;;;;;;;;;;5055983;28;20232;-61
2022/10/18 13:41:02;;;;;;;10.45;9.40;;;;;;;;;;5066670;28;20831;-62
2022/10/18 13:43:47;;;;;;;9.82;8.73;;;;;;;;;;5061907;28;20231;-60
2022/10/18 13:46:13;;;;;;;10.88;9.05;;;;;;;;;;5053754;28;20234;-59
2022/10/18 13:48:49;;;;;;;10.73;9.73;;;;;;;;;;5056732;28;20223;-59
2022/10/18 13:51:30;;;;;;;13.10;10.02;;;;;;;;;;5056986;28;20242;-58
2022/10/18 13:53:59;;;;;;;10.77;9.52;;;;;;;;;;5081410;27;20232;-57
2022/10/18 13:56:34;;;;;;;11.20;9.52;;;;;;;;;;5057461;28;20223;-59
2022/10/18 13:59:14;;;;;;;10.75;9.75;;;;;;;;;;5058418;28;20327;-57
2022/10/18 14:01:45;;;;;;;10.00;9.10;;;;;;;;;;5067418;28;20231;-56
2022/10/18 14:04:30;;;;;;;10.50;9.18;;;;;;;;;;5061751;28;20257;-56
2022/10/18 14:06:58;;;;;;;10.25;9.35;;;;;;;;;;5052561;28;20246;-57
2022/10/18 14:09:26;;;;;;;9.65;8.75;;;;;;;;;;5059868;28;20296;-58
2022/10/18 14:11:55;;;;;;;11.98;9.30;;;;;;;;;;5062694;28;20265;-56
2022/10/18 14:14:25;;;;;;;11.00;9.88;;;;;;;;;;5061434;28;20246;-59
2022/10/18 14:16:54;;;;;;;9.98;8.98;;;;;;;;;;5061502;28;20228;-56
2022/10/18 14:19:25;;;;;;;11.55;10.35;;;;;;;;;;5075071;27;20239;-56
2022/10/18 14:21:53;;;;;;;9.43;8.27;;;;;;;;;;5070992;27;20237;-56
2022/10/18 14:24:22;;;;;;;12.20;10.98;;;;;;;;;;5071622;28;21058;-56
2022/10/18 14:27:10;;;;;;;11.18;10.07;;;;;;;;;;5085625;27;20243;-55
2022/10/18 14:29:37;;;;;;;9.85;8.85;;;;;;;;;;5074430;27;20242;-55
2022/10/18 14:32:07;;;;;;;11.60;10.00;;;;;;;;;;5070216;28;20224;-53
2022/10/18 14:34:34;;;;;;;9.32;8.00;;;;;;;;;;5063248;28;20261;-55
2022/10/18 14:37:01;;;;;;;11.25;10.15;;;;;;;;;;5069565;28;20227;-56
2022/10/18 14:39:29;;;;;;;10.73;9.38;;;;;;;;;;5063516;27;20239;-56
2022/10/18 14:41:56;;;;;;;11.90;10.60;;;;;;;;;;5075742;28;20238;-53
2022/10/18 14:44:25;;;;;;;10.82;9.82;;;;;;;;;;5072060;28;20230;-55
2022/10/18 14:46:58;;;;;;;15.27;12.77;;;;;;;;;;5095395;28;20648;-53
2022/10/18 14:49:24;;;;;;;12.68;11.07;;;;;;;;;;5085821;27;20234;-54